sensor_id;sensor_type;location;lat;lon;timestamp;P1;durP1;ratioP1;P2;durP2;ratioP2
68951;SDS011;56000;51.146;17.112;2023-03-01T00:00:53;62.90;;;26.80;;
68951;SDS011;56000;51.146;17.112;2023-03-01T00:03:31;62.30;;;27.10;;
68951;SDS011;56000;51.146;17.112;2023-03-01T00:06:06;60.50;;;25.70;;
68951;SDS011;56000;51.146;17.112;2023-03-01T00:08:39;67.30;;;29.40;;
68951;SDS011;56000;51.146;17.112;2023-03-01T00:11:14;67.30;;;26.40;;
68951;SDS011;56000;51.146;17.112;2023-03-01T00:13:51;66.20;;;26.50;;
68951;SDS011;56000;51.146;17.112;2023-03-01T00:16:27;87.50;;;33.30;;
68951;SDS011;56000;51.146;17.112;2023-03-01T00:19:02;79.30;;;34.10;;
68951;SDS011;56000;51.146;17.112;2023-03-01T00:21:36;84.70;;;37.10;;
68951;SDS011;56000;51.146;17.112;2023-03-01T00:24:09;83.10;;;34.60;;
68951;SDS011;56000;51.146;17.112;2023-03-01T00:26:43;56.80;;;23.70;;
68951;SDS011;56000;51.146;17.112;2023-03-01T00:29:16;59.80;;;27.00;;
68951;SDS011;56000;51.146;17.112;2023-03-01T00:31:49;65.90;;;27.00;;
68951;SDS011;56000;51.146;17.112;2023-03-01T00:34:22;81.50;;;30.90;;
68951;SDS011;56000;51.146;17.112;2023-03-01T00:36:57;99.50;;;40.70;;
68951;SDS011;56000;51.146;17.112;2023-03-01T00:39:35;88.80;;;35.10;;
68951;SDS011;56000;51.146;17.112;2023-03-01T00:42:08;67.30;;;28.70;;
68951;SDS011;56000;51.146;17.112;2023-03-01T00:44:41;77.70;;;35.10;;
68951;SDS011;56000;51.146;17.112;2023-03-01T00:47:14;84.50;;;34.90;;
68951;SDS011;56000;51.146;17.112;2023-03-01T00:49:49;81.50;;;35.10;;
68951;SDS011;56000;51.146;17.112;2023-03-01T00:52:22;84.00;;;34.80;;
68951;SDS011;56000;51.146;17.112;2023-03-01T00:54:55;92.70;;;35.40;;
68951;SDS011;56000;51.146;17.112;2023-03-01T00:57:28;55.20;;;25.20;;
68951;SDS011;56000;51.146;17.112;2023-03-01T01:00:02;67.30;;;26.70;;
68951;SDS011;56000;51.146;17.112;2023-03-01T01:02:37;59.00;;;25.00;;
68951;SDS011;56000;51.146;17.112;2023-03-01T01:05:10;61.80;;;29.00;;
68951;SDS011;56000;51.146;17.112;2023-03-01T01:07:44;52.50;;;22.30;;
68951;SDS011;56000;51.146;17.112;2023-03-01T01:10:17;58.10;;;24.30;;
68951;SDS011;56000;51.146;17.112;2023-03-01T01:12:50;64.00;;;27.50;;
68951;SDS011;56000;51.146;17.112;2023-03-01T01:15:25;76.40;;;32.00;;
68951;SDS011;56000;51.146;17.112;2023-03-01T01:17:58;64.20;;;30.10;;
68951;SDS011;56000;51.146;17.112;2023-03-01T01:20:31;66.80;;;29.30;;
68951;SDS011;56000;51.146;17.112;2023-03-01T01:23:07;75.80;;;31.00;;
68951;SDS011;56000;51.146;17.112;2023-03-01T01:25:41;70.70;;;27.30;;
68951;SDS011;56000;51.146;17.112;2023-03-01T01:28:14;47.90;;;21.70;;
68951;SDS011;56000;51.146;17.112;2023-03-01T01:30:48;45.00;;;19.30;;
68951;SDS011;56000;51.146;17.112;2023-03-01T01:33:21;44.20;;;19.40;;
68951;SDS011;56000;51.146;17.112;2023-03-01T01:35:54;49.50;;;19.40;;
68951;SDS011;56000;51.146;17.112;2023-03-01T01:38:28;65.80;;;26.80;;
68951;SDS011;56000;51.146;17.112;2023-03-01T01:41:01;59.40;;;24.90;;
68951;SDS011;56000;51.146;17.112;2023-03-01T01:43:37;38.30;;;16.80;;
68951;SDS011;56000;51.146;17.112;2023-03-01T01:46:18;56.20;;;22.60;;
68951;SDS011;56000;51.146;17.112;2023-03-01T01:49:00;52.50;;;21.30;;
68951;SDS011;56000;51.146;17.112;2023-03-01T01:51:38;53.20;;;22.20;;
68951;SDS011;56000;51.146;17.112;2023-03-01T01:54:16;64.20;;;24.80;;
68951;SDS011;56000;51.146;17.112;2023-03-01T01:56:55;51.50;;;21.40;;
68951;SDS011;56000;51.146;17.112;2023-03-01T01:59:30;47.10;;;18.30;;
68951;SDS011;56000;51.146;17.112;2023-03-01T02:02:04;45.80;;;19.20;;
68951;SDS011;56000;51.146;17.112;2023-03-01T02:04:38;64.70;;;24.80;;
68951;SDS011;56000;51.146;17.112;2023-03-01T02:07:14;37.40;;;16.30;;
68951;SDS011;56000;51.146;17.112;2023-03-01T02:09:50;48.00;;;20.20;;
68951;SDS011;56000;51.146;17.112;2023-03-01T02:12:25;51.50;;;21.00;;
68951;SDS011;56000;51.146;17.112;2023-03-01T02:14:59;56.60;;;24.70;;
68951;SDS011;56000;51.146;17.112;2023-03-01T02:17:32;59.40;;;25.70;;
68951;SDS011;56000;51.146;17.112;2023-03-01T02:20:10;63.50;;;25.90;;
68951;SDS011;56000;51.146;17.112;2023-03-01T02:22:50;72.00;;;32.10;;
68951;SDS011;56000;51.146;17.112;2023-03-01T02:25:32;49.60;;;20.90;;
68951;SDS011;56000;51.146;17.112;2023-03-01T02:30:54;46.90;;;20.70;;
68951;SDS011;56000;51.146;17.112;2023-03-01T02:33:44;46.10;;;19.40;;
68951;SDS011;56000;51.146;17.112;2023-03-01T02:36:19;53.00;;;22.20;;
68951;SDS011;56000;51.146;17.112;2023-03-01T02:38:55;62.80;;;27.10;;
68951;SDS011;56000;51.146;17.112;2023-03-01T02:41:33;54.80;;;24.10;;
68951;SDS011;56000;51.146;17.112;2023-03-01T02:44:10;53.90;;;21.80;;
68951;SDS011;56000;51.146;17.112;2023-03-01T02:46:49;63.70;;;26.60;;
68951;SDS011;56000;51.146;17.112;2023-03-01T02:49:26;62.10;;;28.20;;
68951;SDS011;56000;51.146;17.112;2023-03-01T02:52:30;76.50;;;33.20;;
68951;SDS011;56000;51.146;17.112;2023-03-01T02:55:13;50.00;;;22.20;;
68951;SDS011;56000;51.146;17.112;2023-03-01T02:57:48;53.90;;;23.70;;
68951;SDS011;56000;51.146;17.112;2023-03-01T03:00:23;55.20;;;22.10;;
68951;SDS011;56000;51.146;17.112;2023-03-01T03:02:59;55.60;;;24.20;;
68951;SDS011;56000;51.146;17.112;2023-03-01T03:05:33;80.70;;;30.80;;
68951;SDS011;56000;51.146;17.112;2023-03-01T03:08:06;74.20;;;32.60;;
68951;SDS011;56000;51.146;17.112;2023-03-01T03:10:42;62.50;;;27.30;;
68951;SDS011;56000;51.146;17.112;2023-03-01T03:13:15;36.90;;;17.10;;
68951;SDS011;56000;51.146;17.112;2023-03-01T03:15:49;52.10;;;20.40;;
68951;SDS011;56000;51.146;17.112;2023-03-01T03:18:23;48.30;;;19.30;;
68951;SDS011;56000;51.146;17.112;2023-03-01T03:20:56;51.30;;;19.70;;
68951;SDS011;56000;51.146;17.112;2023-03-01T03:23:29;73.70;;;27.00;;
68951;SDS011;56000;51.146;17.112;2023-03-01T03:26:03;69.50;;;28.00;;
68951;SDS011;56000;51.146;17.112;2023-03-01T03:28:36;60.90;;;24.70;;
68951;SDS011;56000;51.146;17.112;2023-03-01T03:31:09;58.80;;;25.90;;
68951;SDS011;56000;51.146;17.112;2023-03-01T03:33:42;68.30;;;27.30;;
68951;SDS011;56000;51.146;17.112;2023-03-01T03:36:18;59.90;;;25.10;;
68951;SDS011;56000;51.146;17.112;2023-03-01T03:38:53;64.50;;;27.20;;
68951;SDS011;56000;51.146;17.112;2023-03-01T03:41:26;60.00;;;25.10;;
68951;SDS011;56000;51.146;17.112;2023-03-01T03:43:59;59.40;;;24.10;;
68951;SDS011;56000;51.146;17.112;2023-03-01T03:46:32;55.60;;;22.50;;
68951;SDS011;56000;51.146;17.112;2023-03-01T03:49:05;63.30;;;23.70;;
68951;SDS011;56000;51.146;17.112;2023-03-01T03:51:38;59.40;;;23.30;;
68951;SDS011;56000;51.146;17.112;2023-03-01T03:54:11;71.50;;;29.10;;
68951;SDS011;56000;51.146;17.112;2023-03-01T03:56:44;61.40;;;24.30;;
68951;SDS011;56000;51.146;17.112;2023-03-01T03:59:17;51.60;;;20.80;;
68951;SDS011;56000;51.146;17.112;2023-03-01T04:01:50;56.20;;;24.70;;
68951;SDS011;56000;51.146;17.112;2023-03-01T04:04:23;67.70;;;27.40;;
68951;SDS011;56000;51.146;17.112;2023-03-01T04:06:56;64.70;;;29.90;;
68951;SDS011;56000;51.146;17.112;2023-03-01T04:09:29;67.50;;;26.20;;
68951;SDS011;56000;51.146;17.112;2023-03-01T04:12:02;57.90;;;25.60;;
68951;SDS011;56000;51.146;17.112;2023-03-01T04:14:36;60.80;;;24.80;;
68951;SDS011;56000;51.146;17.112;2023-03-01T04:17:09;41.50;;;18.70;;
68951;SDS011;56000;51.146;17.112;2023-03-01T04:19:42;50.30;;;22.50;;
68951;SDS011;56000;51.146;17.112;2023-03-01T04:22:19;67.30;;;26.10;;
68951;SDS011;56000;51.146;17.112;2023-03-01T04:24:53;48.70;;;21.60;;
68951;SDS011;56000;51.146;17.112;2023-03-01T04:27:27;58.70;;;22.50;;
68951;SDS011;56000;51.146;17.112;2023-03-01T04:30:00;75.20;;;31.30;;
68951;SDS011;56000;51.146;17.112;2023-03-01T04:32:34;71.90;;;32.00;;
68951;SDS011;56000;51.146;17.112;2023-03-01T04:35:07;73.60;;;32.50;;
68951;SDS011;56000;51.146;17.112;2023-03-01T04:37:41;57.40;;;25.10;;
68951;SDS011;56000;51.146;17.112;2023-03-01T04:40:15;60.40;;;25.80;;
68951;SDS011;56000;51.146;17.112;2023-03-01T04:42:48;51.40;;;22.00;;
68951;SDS011;56000;51.146;17.112;2023-03-01T04:45:22;52.70;;;23.20;;
68951;SDS011;56000;51.146;17.112;2023-03-01T04:47:55;69.40;;;26.10;;
68951;SDS011;56000;51.146;17.112;2023-03-01T04:50:28;63.20;;;24.50;;
68951;SDS011;56000;51.146;17.112;2023-03-01T04:53:02;54.70;;;22.20;;
68951;SDS011;56000;51.146;17.112;2023-03-01T04:55:35;52.10;;;20.20;;
68951;SDS011;56000;51.146;17.112;2023-03-01T04:58:08;56.00;;;22.80;;
68951;SDS011;56000;51.146;17.112;2023-03-01T05:00:41;61.30;;;23.10;;
68951;SDS011;56000;51.146;17.112;2023-03-01T05:03:14;64.50;;;24.60;;
68951;SDS011;56000;51.146;17.112;2023-03-01T05:05:49;78.70;;;27.70;;
68951;SDS011;56000;51.146;17.112;2023-03-01T05:08:23;58.40;;;23.40;;
68951;SDS011;56000;51.146;17.112;2023-03-01T05:10:56;66.30;;;23.00;;
68951;SDS011;56000;51.146;17.112;2023-03-01T05:13:29;60.90;;;22.60;;
68951;SDS011;56000;51.146;17.112;2023-03-01T05:16:04;51.50;;;22.80;;
68951;SDS011;56000;51.146;17.112;2023-03-01T05:18:41;79.30;;;31.60;;
68951;SDS011;56000;51.146;17.112;2023-03-01T05:21:16;76.80;;;30.80;;
68951;SDS011;56000;51.146;17.112;2023-03-01T05:23:49;77.40;;;30.00;;
68951;SDS011;56000;51.146;17.112;2023-03-01T05:26:22;55.60;;;22.60;;
68951;SDS011;56000;51.146;17.112;2023-03-01T05:28:58;63.60;;;23.00;;
68951;SDS011;56000;51.146;17.112;2023-03-01T05:31:31;53.20;;;22.10;;
68951;SDS011;56000;51.146;17.112;2023-03-01T05:34:04;58.90;;;23.50;;
68951;SDS011;56000;51.146;17.112;2023-03-01T05:36:37;70.00;;;26.50;;
68951;SDS011;56000;51.146;17.112;2023-03-01T05:39:10;65.80;;;27.90;;
68951;SDS011;56000;51.146;17.112;2023-03-01T05:41:43;58.10;;;22.50;;
68951;SDS011;56000;51.146;17.112;2023-03-01T05:44:16;53.80;;;24.00;;
68951;SDS011;56000;51.146;17.112;2023-03-01T05:46:50;55.30;;;21.90;;
68951;SDS011;56000;51.146;17.112;2023-03-01T05:49:23;55.70;;;24.20;;
68951;SDS011;56000;51.146;17.112;2023-03-01T05:51:56;47.30;;;19.50;;
68951;SDS011;56000;51.146;17.112;2023-03-01T05:54:29;51.20;;;22.60;;
68951;SDS011;56000;51.146;17.112;2023-03-01T05:57:03;57.70;;;25.70;;
68951;SDS011;56000;51.146;17.112;2023-03-01T05:59:36;79.90;;;30.80;;
68951;SDS011;56000;51.146;17.112;2023-03-01T06:02:09;61.30;;;24.10;;
68951;SDS011;56000;51.146;17.112;2023-03-01T06:04:42;56.90;;;23.90;;
68951;SDS011;56000;51.146;17.112;2023-03-01T06:07:15;51.00;;;22.20;;
68951;SDS011;56000;51.146;17.112;2023-03-01T06:09:48;54.30;;;22.80;;
68951;SDS011;56000;51.146;17.112;2023-03-01T06:12:21;55.60;;;23.50;;
68951;SDS011;56000;51.146;17.112;2023-03-01T06:14:54;55.90;;;24.00;;
68951;SDS011;56000;51.146;17.112;2023-03-01T06:17:28;56.50;;;24.10;;
68951;SDS011;56000;51.146;17.112;2023-03-01T06:20:03;64.20;;;23.90;;
68951;SDS011;56000;51.146;17.112;2023-03-01T06:22:39;70.40;;;32.30;;
68951;SDS011;56000;51.146;17.112;2023-03-01T06:25:14;75.70;;;33.90;;
68951;SDS011;56000;51.146;17.112;2023-03-01T06:27:48;86.60;;;38.80;;
68951;SDS011;56000;51.146;17.112;2023-03-01T06:30:23;67.90;;;31.90;;
68951;SDS011;56000;51.146;17.112;2023-03-01T06:32:57;61.60;;;26.00;;
68951;SDS011;56000;51.146;17.112;2023-03-01T06:35:31;67.50;;;27.60;;
68951;SDS011;56000;51.146;17.112;2023-03-01T06:38:05;80.60;;;31.70;;
68951;SDS011;56000;51.146;17.112;2023-03-01T06:40:38;60.80;;;27.10;;
68951;SDS011;56000;51.146;17.112;2023-03-01T06:43:11;63.10;;;27.50;;
68951;SDS011;56000;51.146;17.112;2023-03-01T06:45:44;61.70;;;28.70;;
68951;SDS011;56000;51.146;17.112;2023-03-01T06:48:17;61.60;;;25.40;;
68951;SDS011;56000;51.146;17.112;2023-03-01T06:50:50;62.20;;;28.10;;
68951;SDS011;56000;51.146;17.112;2023-03-01T06:53:24;63.10;;;27.70;;
68951;SDS011;56000;51.146;17.112;2023-03-01T06:55:58;58.40;;;27.80;;
68951;SDS011;56000;51.146;17.112;2023-03-01T06:58:31;57.20;;;27.10;;
68951;SDS011;56000;51.146;17.112;2023-03-01T07:01:08;61.90;;;24.90;;
68951;SDS011;56000;51.146;17.112;2023-03-01T07:03:41;58.20;;;25.50;;
68951;SDS011;56000;51.146;17.112;2023-03-01T07:06:15;49.90;;;23.10;;
68951;SDS011;56000;51.146;17.112;2023-03-01T07:08:48;58.20;;;25.00;;
68951;SDS011;56000;51.146;17.112;2023-03-01T07:11:21;56.30;;;24.10;;
68951;SDS011;56000;51.146;17.112;2023-03-01T07:13:54;60.50;;;26.40;;
68951;SDS011;56000;51.146;17.112;2023-03-01T07:16:28;58.00;;;26.20;;
68951;SDS011;56000;51.146;17.112;2023-03-01T07:19:02;51.20;;;26.70;;
68951;SDS011;56000;51.146;17.112;2023-03-01T07:21:35;58.10;;;25.90;;
68951;SDS011;56000;51.146;17.112;2023-03-01T07:24:09;74.50;;;32.90;;
68951;SDS011;56000;51.146;17.112;2023-03-01T07:26:43;79.10;;;35.30;;
68951;SDS011;56000;51.146;17.112;2023-03-01T07:29:19;82.40;;;35.40;;
68951;SDS011;56000;51.146;17.112;2023-03-01T07:31:52;75.70;;;33.70;;
68951;SDS011;56000;51.146;17.112;2023-03-01T07:34:25;57.80;;;28.20;;
68951;SDS011;56000;51.146;17.112;2023-03-01T07:36:58;56.60;;;27.50;;
68951;SDS011;56000;51.146;17.112;2023-03-01T07:39:31;49.60;;;24.70;;
68951;SDS011;56000;51.146;17.112;2023-03-01T07:42:04;60.70;;;27.80;;
68951;SDS011;56000;51.146;17.112;2023-03-01T07:44:38;71.40;;;31.50;;
68951;SDS011;56000;51.146;17.112;2023-03-01T07:47:11;55.30;;;26.50;;
68951;SDS011;56000;51.146;17.112;2023-03-01T07:49:44;50.40;;;23.70;;
68951;SDS011;56000;51.146;17.112;2023-03-01T07:52:17;54.50;;;27.20;;
68951;SDS011;56000;51.146;17.112;2023-03-01T07:54:50;54.70;;;24.90;;
68951;SDS011;56000;51.146;17.112;2023-03-01T07:57:23;54.10;;;27.00;;
68951;SDS011;56000;51.146;17.112;2023-03-01T07:59:56;66.60;;;30.80;;
68951;SDS011;56000;51.146;17.112;2023-03-01T08:02:29;67.70;;;32.30;;
68951;SDS011;56000;51.146;17.112;2023-03-01T08:05:03;49.60;;;24.40;;
68951;SDS011;56000;51.146;17.112;2023-03-01T08:07:36;53.20;;;26.30;;
68951;SDS011;56000;51.146;17.112;2023-03-01T08:10:12;49.90;;;24.30;;
68951;SDS011;56000;51.146;17.112;2023-03-01T08:12:45;54.90;;;26.20;;
68951;SDS011;56000;51.146;17.112;2023-03-01T08:15:18;48.00;;;24.80;;
68951;SDS011;56000;51.146;17.112;2023-03-01T08:17:51;49.50;;;25.30;;
68951;SDS011;56000;51.146;17.112;2023-03-01T08:20:24;42.80;;;24.30;;
68951;SDS011;56000;51.146;17.112;2023-03-01T08:22:58;43.20;;;25.00;;
68951;SDS011;56000;51.146;17.112;2023-03-01T08:25:31;40.20;;;22.00;;
68951;SDS011;56000;51.146;17.112;2023-03-01T08:28:05;43.00;;;23.40;;
68951;SDS011;56000;51.146;17.112;2023-03-01T08:30:38;45.10;;;22.50;;
68951;SDS011;56000;51.146;17.112;2023-03-01T08:33:11;43.20;;;24.90;;
68951;SDS011;56000;51.146;17.112;2023-03-01T08:35:44;48.20;;;26.40;;
68951;SDS011;56000;51.146;17.112;2023-03-01T08:38:18;42.00;;;22.40;;
68951;SDS011;56000;51.146;17.112;2023-03-01T08:40:51;35.80;;;20.40;;
68951;SDS011;56000;51.146;17.112;2023-03-01T08:43:24;35.80;;;18.90;;
68951;SDS011;56000;51.146;17.112;2023-03-01T08:45:57;32.30;;;18.00;;
68951;SDS011;56000;51.146;17.112;2023-03-01T08:48:30;36.20;;;19.20;;
68951;SDS011;56000;51.146;17.112;2023-03-01T08:51:10;32.90;;;19.30;;
68951;SDS011;56000;51.146;17.112;2023-03-01T08:53:45;33.30;;;18.50;;
68951;SDS011;56000;51.146;17.112;2023-03-01T08:56:19;44.30;;;24.70;;
68951;SDS011;56000;51.146;17.112;2023-03-01T08:58:52;39.90;;;23.00;;
68951;SDS011;56000;51.146;17.112;2023-03-01T09:01:25;39.80;;;22.20;;
68951;SDS011;56000;51.146;17.112;2023-03-01T09:03:59;33.00;;;20.10;;
68951;SDS011;56000;51.146;17.112;2023-03-01T09:06:33;32.90;;;19.90;;
68951;SDS011;56000;51.146;17.112;2023-03-01T09:09:11;30.70;;;18.10;;
68951;SDS011;56000;51.146;17.112;2023-03-01T09:11:46;33.60;;;20.90;;
68951;SDS011;56000;51.146;17.112;2023-03-01T09:14:20;32.20;;;18.90;;
68951;SDS011;56000;51.146;17.112;2023-03-01T09:16:53;33.10;;;20.50;;
68951;SDS011;56000;51.146;17.112;2023-03-01T09:19:27;33.10;;;19.50;;
68951;SDS011;56000;51.146;17.112;2023-03-01T09:22:00;30.30;;;19.20;;
68951;SDS011;56000;51.146;17.112;2023-03-01T09:24:34;30.40;;;17.20;;
68951;SDS011;56000;51.146;17.112;2023-03-01T09:27:07;29.40;;;19.50;;
68951;SDS011;56000;51.146;17.112;2023-03-01T09:29:41;26.90;;;18.00;;
68951;SDS011;56000;51.146;17.112;2023-03-01T09:32:14;27.30;;;17.70;;
68951;SDS011;56000;51.146;17.112;2023-03-01T09:34:47;26.00;;;16.50;;
68951;SDS011;56000;51.146;17.112;2023-03-01T09:37:35;29.40;;;18.30;;
68951;SDS011;56000;51.146;17.112;2023-03-01T09:40:12;23.40;;;16.50;;
68951;SDS011;56000;51.146;17.112;2023-03-01T09:42:53;24.80;;;13.90;;
68951;SDS011;56000;51.146;17.112;2023-03-01T09:45:34;22.60;;;13.90;;
68951;SDS011;56000;51.146;17.112;2023-03-01T09:48:15;21.40;;;14.00;;
68951;SDS011;56000;51.146;17.112;2023-03-01T09:50:52;22.90;;;14.10;;
68951;SDS011;56000;51.146;17.112;2023-03-01T09:53:30;22.50;;;13.90;;
68951;SDS011;56000;51.146;17.112;2023-03-01T09:56:12;18.30;;;11.70;;
68951;SDS011;56000;51.146;17.112;2023-03-01T09:58:54;21.90;;;14.80;;
68951;SDS011;56000;51.146;17.112;2023-03-01T10:01:35;20.80;;;13.90;;
68951;SDS011;56000;51.146;17.112;2023-03-01T10:04:28;20.10;;;14.70;;
68951;SDS011;56000;51.146;17.112;2023-03-01T10:07:21;21.40;;;13.30;;
68951;SDS011;56000;51.146;17.112;2023-03-01T10:10:00;21.80;;;15.10;;
68951;SDS011;56000;51.146;17.112;2023-03-01T10:12:37;29.20;;;17.20;;
68951;SDS011;56000;51.146;17.112;2023-03-01T10:15:13;20.70;;;14.60;;
68951;SDS011;56000;51.146;17.112;2023-03-01T10:17:51;22.20;;;14.20;;
68951;SDS011;56000;51.146;17.112;2023-03-01T10:20:33;26.70;;;16.90;;
68951;SDS011;56000;51.146;17.112;2023-03-01T10:23:15;22.10;;;14.00;;
68951;SDS011;56000;51.146;17.112;2023-03-01T10:25:56;19.80;;;14.40;;
68951;SDS011;56000;51.146;17.112;2023-03-01T10:28:43;18.60;;;14.10;;
68951;SDS011;56000;51.146;17.112;2023-03-01T10:31:36;24.30;;;14.90;;
68951;SDS011;56000;51.146;17.112;2023-03-01T10:34:15;20.80;;;14.40;;
68951;SDS011;56000;51.146;17.112;2023-03-01T10:36:51;19.80;;;14.10;;
68951;SDS011;56000;51.146;17.112;2023-03-01T10:39:28;25.10;;;14.90;;
68951;SDS011;56000;51.146;17.112;2023-03-01T10:42:05;20.40;;;13.90;;
68951;SDS011;56000;51.146;17.112;2023-03-01T10:44:50;19.70;;;14.80;;
68951;SDS011;56000;51.146;17.112;2023-03-01T10:47:24;18.90;;;12.80;;
68951;SDS011;56000;51.146;17.112;2023-03-01T10:50:02;18.80;;;12.60;;
68951;SDS011;56000;51.146;17.112;2023-03-01T10:52:37;17.50;;;12.40;;
68951;SDS011;56000;51.146;17.112;2023-03-01T10:55:26;17.70;;;10.50;;
68951;SDS011;56000;51.146;17.112;2023-03-01T10:58:18;15.20;;;9.70;;
68951;SDS011;56000;51.146;17.112;2023-03-01T11:00:54;15.70;;;9.60;;
68951;SDS011;56000;51.146;17.112;2023-03-01T11:03:31;15.60;;;10.90;;
68951;SDS011;56000;51.146;17.112;2023-03-01T11:06:19;17.80;;;11.10;;
68951;SDS011;56000;51.146;17.112;2023-03-01T11:08:53;13.30;;;10.50;;
68951;SDS011;56000;51.146;17.112;2023-03-01T11:11:33;15.40;;;10.30;;
68951;SDS011;56000;51.146;17.112;2023-03-01T11:14:12;20.80;;;11.60;;
68951;SDS011;56000;51.146;17.112;2023-03-01T11:17:03;20.90;;;13.20;;
68951;SDS011;56000;51.146;17.112;2023-03-01T11:19:43;19.30;;;12.70;;
68951;SDS011;56000;51.146;17.112;2023-03-01T11:22:33;28.70;;;15.00;;
68951;SDS011;56000;51.146;17.112;2023-03-01T11:25:10;17.20;;;12.60;;
68951;SDS011;56000;51.146;17.112;2023-03-01T11:27:46;20.40;;;13.80;;
68951;SDS011;56000;51.146;17.112;2023-03-01T11:30:23;23.70;;;14.80;;
68951;SDS011;56000;51.146;17.112;2023-03-01T11:33:05;20.10;;;13.70;;
68951;SDS011;56000;51.146;17.112;2023-03-01T11:35:50;17.70;;;13.30;;
68951;SDS011;56000;51.146;17.112;2023-03-01T11:38:30;19.40;;;12.90;;
68951;SDS011;56000;51.146;17.112;2023-03-01T11:41:10;15.00;;;11.70;;
68951;SDS011;56000;51.146;17.112;2023-03-01T11:43:51;16.50;;;11.90;;
68951;SDS011;56000;51.146;17.112;2023-03-01T11:46:45;15.70;;;12.90;;
68951;SDS011;56000;51.146;17.112;2023-03-01T11:49:51;18.10;;;12.50;;
68951;SDS011;56000;51.146;17.112;2023-03-01T11:52:46;16.50;;;11.60;;
68951;SDS011;56000;51.146;17.112;2023-03-01T11:55:33;16.90;;;12.10;;
68951;SDS011;56000;51.146;17.112;2023-03-01T11:58:42;16.50;;;12.00;;
68951;SDS011;56000;51.146;17.112;2023-03-01T12:01:32;20.80;;;11.10;;
68951;SDS011;56000;51.146;17.112;2023-03-01T12:07:35;16.30;;;10.60;;
68951;SDS011;56000;51.146;17.112;2023-03-01T12:10:22;14.90;;;10.80;;
68951;SDS011;56000;51.146;17.112;2023-03-01T12:13:20;11.80;;;8.70;;
68951;SDS011;56000;51.146;17.112;2023-03-01T12:16:27;10.90;;;7.10;;
68951;SDS011;56000;51.146;17.112;2023-03-01T12:19:18;11.10;;;6.80;;
68951;SDS011;56000;51.146;17.112;2023-03-01T12:22:09;11.10;;;6.20;;
68951;SDS011;56000;51.146;17.112;2023-03-01T12:25:18;9.50;;;6.00;;
68951;SDS011;56000;51.146;17.112;2023-03-01T12:28:22;9.10;;;6.50;;
68951;SDS011;56000;51.146;17.112;2023-03-01T12:34:27;7.50;;;5.70;;
68951;SDS011;56000;51.146;17.112;2023-03-01T12:37:22;8.20;;;6.20;;
68951;SDS011;56000;51.146;17.112;2023-03-01T12:40:26;10.50;;;6.10;;
68951;SDS011;56000;51.146;17.112;2023-03-01T12:43:15;7.20;;;5.00;;
68951;SDS011;56000;51.146;17.112;2023-03-01T12:46:00;9.90;;;5.90;;
68951;SDS011;56000;51.146;17.112;2023-03-01T12:48:47;9.10;;;6.60;;
68951;SDS011;56000;51.146;17.112;2023-03-01T12:51:31;9.90;;;7.70;;
68951;SDS011;56000;51.146;17.112;2023-03-01T12:54:15;9.60;;;7.20;;
68951;SDS011;56000;51.146;17.112;2023-03-01T12:56:52;14.40;;;7.40;;
68951;SDS011;56000;51.146;17.112;2023-03-01T12:59:29;9.50;;;7.40;;
68951;SDS011;56000;51.146;17.112;2023-03-01T13:02:13;12.00;;;7.40;;
68951;SDS011;56000;51.146;17.112;2023-03-01T13:05:00;10.20;;;7.40;;
68951;SDS011;56000;51.146;17.112;2023-03-01T13:07:52;11.80;;;7.80;;
68951;SDS011;56000;51.146;17.112;2023-03-01T13:10:33;9.70;;;7.60;;
68951;SDS011;56000;51.146;17.112;2023-03-01T13:13:18;8.20;;;6.70;;
68951;SDS011;56000;51.146;17.112;2023-03-01T13:15:53;9.30;;;7.30;;
68951;SDS011;56000;51.146;17.112;2023-03-01T13:18:31;11.50;;;7.30;;
68951;SDS011;56000;51.146;17.112;2023-03-01T13:21:06;11.70;;;7.20;;
68951;SDS011;56000;51.146;17.112;2023-03-01T13:23:40;9.40;;;6.90;;
68951;SDS011;56000;51.146;17.112;2023-03-01T13:28:52;11.60;;;7.70;;
68951;SDS011;56000;51.146;17.112;2023-03-01T13:31:59;9.80;;;7.80;;
68951;SDS011;56000;51.146;17.112;2023-03-01T13:34:53;13.00;;;8.70;;
68951;SDS011;56000;51.146;17.112;2023-03-01T13:37:33;10.00;;;8.20;;
68951;SDS011;56000;51.146;17.112;2023-03-01T13:43:34;12.50;;;8.10;;
68951;SDS011;56000;51.146;17.112;2023-03-01T13:46:16;13.70;;;9.20;;
68951;SDS011;56000;51.146;17.112;2023-03-01T13:48:53;13.70;;;9.30;;
68951;SDS011;56000;51.146;17.112;2023-03-01T13:51:28;19.00;;;9.60;;
68951;SDS011;56000;51.146;17.112;2023-03-01T13:54:02;14.70;;;9.50;;
68951;SDS011;56000;51.146;17.112;2023-03-01T13:56:37;20.40;;;10.80;;
68951;SDS011;56000;51.146;17.112;2023-03-01T13:59:19;16.30;;;9.40;;
68951;SDS011;56000;51.146;17.112;2023-03-01T14:01:57;16.10;;;9.10;;
68951;SDS011;56000;51.146;17.112;2023-03-01T14:04:32;14.70;;;8.90;;
68951;SDS011;56000;51.146;17.112;2023-03-01T14:07:18;14.80;;;8.60;;
68951;SDS011;56000;51.146;17.112;2023-03-01T14:09:55;17.60;;;9.10;;
68951;SDS011;56000;51.146;17.112;2023-03-01T14:12:41;18.50;;;11.30;;
68951;SDS011;56000;51.146;17.112;2023-03-01T14:15:25;17.40;;;9.60;;
68951;SDS011;56000;51.146;17.112;2023-03-01T14:18:04;19.20;;;10.80;;
68951;SDS011;56000;51.146;17.112;2023-03-01T14:20:44;17.50;;;10.90;;
68951;SDS011;56000;51.146;17.112;2023-03-01T14:23:23;15.40;;;9.10;;
68951;SDS011;56000;51.146;17.112;2023-03-01T14:25:58;15.90;;;8.60;;
68951;SDS011;56000;51.146;17.112;2023-03-01T14:28:32;17.00;;;8.90;;
68951;SDS011;56000;51.146;17.112;2023-03-01T14:31:35;18.50;;;9.70;;
68951;SDS011;56000;51.146;17.112;2023-03-01T14:34:23;15.60;;;8.90;;
68951;SDS011;56000;51.146;17.112;2023-03-01T14:36:57;15.30;;;8.40;;
68951;SDS011;56000;51.146;17.112;2023-03-01T14:39:42;18.50;;;8.30;;
68951;SDS011;56000;51.146;17.112;2023-03-01T14:42:16;15.90;;;8.20;;
68951;SDS011;56000;51.146;17.112;2023-03-01T14:44:52;14.40;;;7.90;;
68951;SDS011;56000;51.146;17.112;2023-03-01T14:47:30;14.50;;;8.20;;
68951;SDS011;56000;51.146;17.112;2023-03-01T14:50:08;14.10;;;7.70;;
68951;SDS011;56000;51.146;17.112;2023-03-01T14:52:48;19.10;;;7.80;;
68951;SDS011;56000;51.146;17.112;2023-03-01T14:55:29;15.60;;;8.00;;
68951;SDS011;56000;51.146;17.112;2023-03-01T14:58:09;14.00;;;8.30;;
68951;SDS011;56000;51.146;17.112;2023-03-01T15:00:49;17.80;;;8.70;;
68951;SDS011;56000;51.146;17.112;2023-03-01T15:03:29;16.20;;;8.70;;
68951;SDS011;56000;51.146;17.112;2023-03-01T15:06:06;15.20;;;7.60;;
68951;SDS011;56000;51.146;17.112;2023-03-01T15:08:44;15.40;;;8.30;;
68951;SDS011;56000;51.146;17.112;2023-03-01T15:11:22;14.60;;;7.80;;
68951;SDS011;56000;51.146;17.112;2023-03-01T15:13:59;20.40;;;9.20;;
68951;SDS011;56000;51.146;17.112;2023-03-01T15:16:32;16.60;;;9.10;;
68951;SDS011;56000;51.146;17.112;2023-03-01T15:19:18;13.50;;;8.00;;
68951;SDS011;56000;51.146;17.112;2023-03-01T15:21:51;20.10;;;9.50;;
68951;SDS011;56000;51.146;17.112;2023-03-01T15:24:26;22.00;;;11.70;;